createdAt,value
2023-01-30T00:02:16.210Z,100596.03
2023-01-30T00:04:44.593Z,100593.28
2023-01-30T00:07:12.592Z,100584.84
2023-01-30T00:09:41.245Z,100587.34
2023-01-30T00:12:09.589Z,100585.47
2023-01-30T00:14:37.647Z,100580.28
2023-01-30T00:17:06.968Z,100579.47
2023-01-30T00:19:35.353Z,100563.78
2023-01-30T00:22:03.451Z,100571.84
2023-01-30T00:24:31.855Z,100559.97
2023-01-30T00:27:00.314Z,100546.34
2023-01-30T00:29:28.478Z,100549.59
2023-01-30T00:31:56.757Z,100540.75
2023-01-30T00:34:26.788Z,100547.34
2023-01-30T00:37:07.449Z,100544.16
2023-01-30T00:39:36.358Z,100540.22
2023-01-30T00:42:22.610Z,100516.66
2023-01-30T00:45:08.528Z,100514.75
2023-01-30T00:47:36.582Z,100498.06
2023-01-30T00:50:07.222Z,100485.88
2023-01-30T00:52:37.029Z,100470.44
2023-01-30T00:55:05.964Z,100456.34
2023-01-30T00:57:34.108Z,100448.19
2023-01-30T01:00:02.317Z,100447.09
2023-01-30T01:02:30.738Z,100431.34
2023-01-30T01:04:59.833Z,100419.25
2023-01-30T01:07:29.717Z,100416.34
2023-01-30T01:09:59.337Z,100408.75
2023-01-30T01:12:27.413Z,100389.87
2023-01-30T01:14:55.495Z,100408.47
2023-01-30T01:17:23.883Z,100383.72
2023-01-30T01:19:51.939Z,100380.16
2023-01-30T01:22:19.915Z,100389.03
2023-01-30T01:24:49.651Z,100400.81
2023-01-30T01:27:18.807Z,100392.25
2023-01-30T01:29:46.918Z,100361.53
2023-01-30T01:32:17.230Z,100358.13
2023-01-30T01:34:45.424Z,100337.09
2023-01-30T01:37:13.993Z,100334.00
2023-01-30T01:40:01.636Z,100337.44
2023-01-30T01:42:36.043Z,100352.41
2023-01-30T01:45:17.533Z,100351.34
2023-01-30T01:47:53.591Z,100344.25
2023-01-30T01:50:26.638Z,100349.25
2023-01-30T01:52:56.514Z,100355.91
2023-01-30T01:55:26.201Z,100375.06
2023-01-30T01:57:58.907Z,100385.03
2023-01-30T02:00:27.762Z,100381.25
2023-01-30T02:02:59.504Z,100374.03
2023-01-30T02:05:31.930Z,100375.91
2023-01-30T02:08:04.176Z,100370.81
2023-01-30T02:10:41.365Z,100346.41
2023-01-30T02:13:11.094Z,100327.50
2023-01-30T02:15:40.318Z,100304.72
2023-01-30T02:18:08.884Z,100300.50
2023-01-30T02:20:57.006Z,100284.00
2023-01-30T02:24:03.803Z,100274.03
2023-01-30T02:26:48.562Z,100269.62
2023-01-30T02:29:38.545Z,100272.38
2023-01-30T02:32:13.952Z,100277.53
2023-01-30T02:34:51.782Z,100254.19
2023-01-30T02:37:30.609Z,100237.47
2023-01-30T02:40:16.782Z,100232.53
2023-01-30T02:42:52.728Z,100255.81
2023-01-30T02:45:30.519Z,100259.84
2023-01-30T02:48:03.810Z,100255.38
2023-01-30T02:50:37.774Z,100243.91
2023-01-30T02:53:07.277Z,100223.16
2023-01-30T02:55:36.461Z,100233.31
2023-01-30T02:58:05.752Z,100226.41
2023-01-30T03:00:49.813Z,100220.22
2023-01-30T03:03:42.251Z,100226.75
2023-01-30T03:06:27.013Z,100209.47
2023-01-30T03:09:05.933Z,100197.78
2023-01-30T03:11:45.619Z,100173.16
2023-01-30T03:14:22.453Z,100168.41
2023-01-30T03:16:55.390Z,100172.50
2023-01-30T03:19:25.311Z,100155.56
2023-01-30T03:21:53.502Z,100137.31
2023-01-30T03:24:22.097Z,100164.94
2023-01-30T03:26:56.199Z,100164.50
2023-01-30T03:29:24.998Z,100150.47
2023-01-30T03:31:53.392Z,100149.19
2023-01-30T03:34:21.452Z,100152.63
2023-01-30T03:36:52.007Z,100136.34
2023-01-30T03:39:20.679Z,100139.03
2023-01-30T03:41:48.845Z,100138.91
2023-01-30T03:44:17.702Z,100118.63
2023-01-30T03:46:46.232Z,100110.66
2023-01-30T03:49:14.230Z,100126.31
2023-01-30T03:51:42.389Z,100129.94
2023-01-30T03:54:12.221Z,100117.09
2023-01-30T03:56:40.394Z,100108.37
2023-01-30T03:59:09.079Z,100102.69
2023-01-30T04:01:37.943Z,100103.00
2023-01-30T04:04:06.785Z,100085.34
2023-01-30T04:06:36.596Z,100071.97
2023-01-30T04:09:05.840Z,100073.91
2023-01-30T04:11:36.373Z,100065.94
2023-01-30T04:14:04.643Z,100058.34
2023-01-30T04:16:35.135Z,100046.66
2023-01-30T04:19:05.617Z,100042.72
2023-01-30T04:21:34.193Z,100043.81
2023-01-30T04:24:02.425Z,100054.22
2023-01-30T04:26:30.552Z,100045.53
2023-01-30T04:29:00.641Z,100036.56
2023-01-30T04:31:28.931Z,100045.53
2023-01-30T04:33:57.342Z,100052.91
2023-01-30T04:36:25.910Z,100052.09
2023-01-30T04:38:54.298Z,100037.91
2023-01-30T04:41:22.705Z,100025.03
2023-01-30T04:43:51.405Z,100022.38
2023-01-30T04:46:21.178Z,100008.53
2023-01-30T04:48:49.292Z,99985.72
2023-01-30T04:51:17.643Z,99993.75
2023-01-30T04:53:45.813Z,99990.22
2023-01-30T04:56:14.590Z,99970.50
2023-01-30T04:58:42.917Z,99970.59
2023-01-30T05:01:16.979Z,99966.44
2023-01-30T05:03:46.774Z,99970.97
2023-01-30T05:06:14.786Z,99965.78
2023-01-30T05:08:43.481Z,99960.69
2023-01-30T05:11:12.581Z,99979.53
2023-01-30T05:13:40.681Z,99975.31
2023-01-30T05:16:08.743Z,99965.72
2023-01-30T05:18:37.140Z,99964.34
2023-01-30T05:21:09.083Z,99956.44
2023-01-30T05:23:37.481Z,99941.09
2023-01-30T05:26:06.265Z,99941.16
2023-01-30T05:28:34.911Z,99933.37
2023-01-30T05:31:03.866Z,99932.13
2023-01-30T05:33:32.048Z,99936.94
2023-01-30T05:36:00.542Z,99925.00
2023-01-30T05:38:30.495Z,99933.19
2023-01-30T05:41:02.796Z,99925.75
2023-01-30T05:43:31.581Z,99927.31
2023-01-30T05:46:01.078Z,99931.03
2023-01-30T05:48:29.786Z,99909.19
2023-01-30T05:51:00.237Z,99911.94
2023-01-30T05:53:31.935Z,99913.75
2023-01-30T05:56:02.332Z,99917.56
2023-01-30T05:58:30.903Z,99911.66
2023-01-30T06:01:02.196Z,99913.53
2023-01-30T06:03:30.715Z,99914.19
2023-01-30T06:05:58.876Z,99911.19
2023-01-30T06:08:26.885Z,99915.84
2023-01-30T06:10:56.565Z,99903.34
2023-01-30T06:13:24.559Z,99907.34
2023-01-30T06:15:53.862Z,99912.38
2023-01-30T06:18:22.443Z,99900.38
2023-01-30T06:20:50.759Z,99906.66
2023-01-30T06:23:19.643Z,99896.75
2023-01-30T06:25:49.432Z,99902.06
2023-01-30T06:28:19.508Z,99902.50
2023-01-30T06:30:47.934Z,99894.03
2023-01-30T06:33:16.495Z,99891.81
2023-01-30T06:35:45.381Z,99880.31
2023-01-30T06:38:14.294Z,99881.53
2023-01-30T06:40:45.139Z,99887.16
2023-01-30T06:43:13.715Z,99891.25
2023-01-30T06:45:43.222Z,99892.94
2023-01-30T06:48:11.576Z,99895.88
2023-01-30T06:50:39.858Z,99894.28
2023-01-30T06:53:08.963Z,99893.09
2023-01-30T06:55:38.161Z,99890.19
2023-01-30T06:58:08.598Z,99883.97
2023-01-30T07:00:39.576Z,99869.84
2023-01-30T07:03:11.833Z,99869.66
2023-01-30T07:05:40.426Z,99873.56
2023-01-30T07:08:09.435Z,99888.31
2023-01-30T07:10:37.694Z,99884.81
2023-01-30T07:13:06.181Z,99869.94
2023-01-30T07:15:34.672Z,99870.19
2023-01-30T07:18:02.759Z,99873.75
2023-01-30T07:20:32.273Z,99867.34
2023-01-30T07:23:00.772Z,99879.16
2023-01-30T07:25:29.636Z,99884.94
2023-01-30T07:28:00.045Z,99870.69
2023-01-30T07:30:30.861Z,99876.09
2023-01-30T07:33:00.525Z,99880.75
2023-01-30T07:35:31.343Z,99889.22
2023-01-30T07:38:00.859Z,99892.00
2023-01-30T07:40:29.548Z,99908.06
2023-01-30T07:42:59.394Z,99899.66
2023-01-30T07:45:30.831Z,99904.25
2023-01-30T07:47:59.122Z,99904.25
2023-01-30T07:50:27.107Z,99892.63
2023-01-30T07:52:55.069Z,99895.44
2023-01-30T07:55:24.956Z,99893.38
2023-01-30T07:57:53.066Z,99888.28
2023-01-30T08:00:21.546Z,99893.63
2023-01-30T08:02:49.912Z,99897.53
2023-01-30T08:05:17.986Z,99901.87
2023-01-30T08:07:47.416Z,99905.28
2023-01-30T08:10:16.815Z,99912.13
2023-01-30T08:12:46.527Z,99913.44
2023-01-30T08:15:14.642Z,99908.97
2023-01-30T08:17:42.979Z,99908.09
2023-01-30T08:20:12.288Z,99909.72
2023-01-30T08:22:40.264Z,99903.91
2023-01-30T08:25:09.273Z,99913.53
2023-01-30T08:27:37.251Z,99927.66
2023-01-30T08:30:07.766Z,99933.63
2023-01-30T08:32:35.989Z,99918.38
2023-01-30T08:35:04.005Z,99920.50
2023-01-30T08:37:32.066Z,99921.38
2023-01-30T08:40:00.338Z,99929.88
2023-01-30T08:42:28.471Z,99925.03
2023-01-30T08:44:56.446Z,99921.78
2023-01-30T08:47:26.439Z,99890.62
2023-01-30T08:49:54.556Z,99896.53
2023-01-30T08:52:22.627Z,99893.69
2023-01-30T08:54:51.000Z,99888.00
2023-01-30T08:57:19.388Z,99899.34
2023-01-30T08:59:47.688Z,99911.75
2023-01-30T09:02:15.933Z,99906.28
2023-01-30T09:04:46.960Z,99908.19
2023-01-30T09:07:15.228Z,99917.25
2023-01-30T09:09:43.223Z,99914.00
2023-01-30T09:12:11.359Z,99932.37
2023-01-30T09:14:40.088Z,99916.81
2023-01-30T09:17:08.067Z,99920.44
2023-01-30T09:19:37.283Z,99915.72
2023-01-30T09:22:07.968Z,99915.16
2023-01-30T09:24:36.205Z,99913.97
2023-01-30T09:27:04.288Z,99923.41
2023-01-30T09:29:32.664Z,99926.22
2023-01-30T09:32:00.866Z,99915.97
2023-01-30T09:34:29.449Z,99912.81
2023-01-30T09:37:00.236Z,99909.56
2023-01-30T09:39:30.202Z,99913.69
2023-01-30T09:42:26.839Z,99907.03
2023-01-30T09:45:25.268Z,99911.66
2023-01-30T09:48:02.725Z,99913.94
2023-01-30T09:50:49.068Z,99911.66
2023-01-30T09:53:24.514Z,99926.81
2023-01-30T09:55:53.949Z,99905.25
2023-01-30T09:58:25.369Z,99909.69
2023-01-30T10:00:58.053Z,99912.94
2023-01-30T10:03:31.057Z,99913.41
2023-01-30T10:06:03.317Z,99915.09
2023-01-30T10:08:51.156Z,99913.12
2023-01-30T10:11:31.234Z,99905.59
2023-01-30T10:14:14.924Z,99897.16
2023-01-30T10:16:51.206Z,99900.75
2023-01-30T10:19:37.257Z,99906.22
2023-01-30T10:22:15.414Z,99911.63
2023-01-30T10:24:57.430Z,99895.56
2023-01-30T10:27:30.572Z,99893.09
2023-01-30T10:30:02.208Z,99898.47
2023-01-30T10:32:33.918Z,99897.16
2023-01-30T10:35:09.055Z,99900.75
2023-01-30T10:37:45.816Z,99903.31
2023-01-30T10:40:24.246Z,99900.75
2023-01-30T10:43:00.491Z,99904.16
2023-01-30T10:45:38.882Z,99896.88
2023-01-30T10:48:42.194Z,99887.88
2023-01-30T10:51:22.653Z,99885.75
2023-01-30T10:53:57.038Z,99886.00
2023-01-30T10:56:32.761Z,99878.59
2023-01-30T10:59:11.508Z,99869.84
2023-01-30T11:01:45.199Z,99870.72
2023-01-30T11:04:23.942Z,99883.47
2023-01-30T11:06:53.626Z,99879.63
2023-01-30T11:09:23.226Z,99877.97
2023-01-30T11:11:54.253Z,99869.78
2023-01-30T11:14:23.748Z,99869.75
2023-01-30T11:16:54.277Z,99868.44
2023-01-30T11:19:25.929Z,99865.72
2023-01-30T11:21:56.502Z,99850.91
2023-01-30T11:24:30.635Z,99858.94
2023-01-30T11:27:11.569Z,99848.94
2023-01-30T11:29:41.148Z,99850.94
2023-01-30T11:32:15.756Z,99846.38
2023-01-30T11:34:45.384Z,99846.16
2023-01-30T11:37:15.985Z,99839.91
2023-01-30T11:39:52.862Z,99835.22
2023-01-30T11:42:25.332Z,99818.97
2023-01-30T11:45:16.193Z,99823.16
2023-01-30T11:47:57.238Z,99829.53
2023-01-30T11:50:36.720Z,99821.47
2023-01-30T11:53:20.840Z,99840.16
2023-01-30T11:56:02.151Z,99816.16
2023-01-30T11:58:33.987Z,99812.81
2023-01-30T12:01:05.352Z,99807.81
2023-01-30T12:03:34.540Z,99796.34
2023-01-30T12:06:02.815Z,99794.25
2023-01-30T12:08:42.170Z,99782.44
2023-01-30T12:11:27.818Z,99789.59
2023-01-30T12:14:00.876Z,99776.53
2023-01-30T12:16:47.620Z,99779.78
2023-01-30T12:19:30.493Z,99773.34
2023-01-30T12:22:06.464Z,99764.78
2023-01-30T12:24:42.010Z,99757.28
2023-01-30T12:27:17.576Z,99776.12
2023-01-30T12:29:55.273Z,99763.91
2023-01-30T12:32:41.047Z,99749.78
2023-01-30T12:35:16.717Z,99749.28
2023-01-30T12:38:00.737Z,99756.28
2023-01-30T12:41:01.429Z,99757.03
2023-01-30T12:44:07.438Z,99743.00
2023-01-30T12:46:52.499Z,99745.62
2023-01-30T12:49:45.345Z,99735.84
2023-01-30T12:52:31.998Z,99741.41
2023-01-30T12:55:07.647Z,99736.94
2023-01-30T12:57:41.578Z,99726.19
2023-01-30T13:00:30.011Z,99741.28
2023-01-30T13:03:17.415Z,99733.69
2023-01-30T13:05:55.144Z,99739.47
2023-01-30T13:08:38.562Z,99743.09
2023-01-30T13:11:22.416Z,99737.34
2023-01-30T13:13:56.216Z,99733.91
2023-01-30T13:16:30.685Z,99736.31
2023-01-30T13:19:04.233Z,99727.03
2023-01-30T13:21:42.449Z,99722.94
2023-01-30T13:24:22.849Z,99735.34
2023-01-30T13:26:53.247Z,99727.00
2023-01-30T13:29:30.095Z,99729.97
2023-01-30T13:32:02.815Z,99733.44
2023-01-30T13:34:34.972Z,99733.59
2023-01-30T13:37:09.860Z,99736.75
2023-01-30T13:39:44.604Z,99742.59
2023-01-30T13:42:22.922Z,99745.22
2023-01-30T13:44:52.337Z,99743.47
2023-01-30T13:47:33.308Z,99745.53
2023-01-30T13:50:10.856Z,99748.13
2023-01-30T13:52:46.869Z,99743.34
2023-01-30T13:55:27.077Z,99738.16
2023-01-30T13:58:00.895Z,99747.09
2023-01-30T14:00:34.002Z,99741.66
2023-01-30T14:03:30.367Z,99748.66
2023-01-30T14:06:03.610Z,99742.19
2023-01-30T14:08:40.790Z,99754.50
2023-01-30T14:11:29.119Z,99763.22
2023-01-30T14:14:03.485Z,99777.25
2023-01-30T14:16:43.009Z,99783.56
2023-01-30T14:19:30.615Z,99782.66
2023-01-30T14:22:01.362Z,99795.50
2023-01-30T14:24:31.700Z,99802.06
2023-01-30T14:27:05.855Z,99806.38
2023-01-30T14:29:56.514Z,99820.81
2023-01-30T14:32:51.707Z,99809.47
2023-01-30T14:35:28.153Z,99826.16
2023-01-30T14:38:13.658Z,99831.00
2023-01-30T14:40:48.397Z,99835.88
2023-01-30T14:43:36.304Z,99849.50
2023-01-30T14:46:08.565Z,99860.50
2023-01-30T14:48:45.007Z,99848.53
2023-01-30T14:51:20.820Z,99839.16
2023-01-30T14:53:58.390Z,99847.56
2023-01-30T14:56:45.607Z,99847.97
2023-01-30T14:59:25.123Z,99853.72
2023-01-30T15:02:09.474Z,99860.84
2023-01-30T15:04:44.843Z,99855.91
2023-01-30T15:07:17.627Z,99849.41
2023-01-30T15:09:54.345Z,99853.31
2023-01-30T15:12:46.819Z,99866.59
2023-01-30T15:15:22.088Z,99873.00
2023-01-30T15:18:08.709Z,99878.63
2023-01-30T15:20:50.440Z,99887.53
2023-01-30T15:23:47.867Z,99897.34
2023-01-30T15:26:29.887Z,99894.09
2023-01-30T15:29:18.459Z,99899.50
2023-01-30T15:31:55.490Z,99908.19
2023-01-30T15:34:24.525Z,99913.97
2023-01-30T15:36:52.505Z,99909.78
2023-01-30T15:39:23.732Z,99902.22
2023-01-30T15:41:53.537Z,99904.25
2023-01-30T15:44:51.531Z,99908.81
2023-01-30T15:47:32.404Z,99903.88
2023-01-30T15:50:03.777Z,99909.91
2023-01-30T15:52:40.103Z,99903.41
2023-01-30T15:55:16.137Z,99906.44
2023-01-30T15:57:49.231Z,99904.16
2023-01-30T16:00:27.744Z,99915.09
2023-01-30T16:02:56.893Z,99919.69
2023-01-30T16:05:26.784Z,99908.03
2023-01-30T16:07:56.285Z,99931.34
2023-01-30T16:10:26.511Z,99946.06
2023-01-30T16:12:56.961Z,99963.66
2023-01-30T16:15:33.557Z,99962.31
2023-01-30T16:18:06.189Z,99963.34
2023-01-30T16:20:58.974Z,99970.37
2023-01-30T16:23:32.611Z,99972.94
2023-01-30T16:26:01.785Z,99982.19
2023-01-30T16:28:32.062Z,99986.97
2023-01-30T16:31:04.463Z,99976.25
2023-01-30T16:33:36.481Z,99979.03
2023-01-30T16:36:07.667Z,99992.06
2023-01-30T16:38:44.323Z,99996.28
2023-01-30T16:41:31.447Z,99991.88
2023-01-30T16:44:11.315Z,100005.06
2023-01-30T16:46:53.292Z,99999.28
2023-01-30T16:49:24.847Z,100000.22
2023-01-30T16:52:03.041Z,100010.34
2023-01-30T16:54:33.424Z,100019.44
2023-01-30T16:57:03.395Z,100012.25
2023-01-30T16:59:33.537Z,100045.09
2023-01-30T17:02:07.347Z,100039.12
2023-01-30T17:04:41.227Z,100023.75
2023-01-30T17:07:34.060Z,100044.63
2023-01-30T17:10:02.136Z,100042.28
2023-01-30T17:12:38.865Z,100051.03
2023-01-30T17:15:30.536Z,100062.12
2023-01-30T17:18:00.627Z,100075.47
2023-01-30T17:20:39.827Z,100082.28
2023-01-30T17:23:10.852Z,100089.84
2023-01-30T17:25:42.928Z,100072.75
2023-01-30T17:28:18.587Z,100092.72
2023-01-30T17:30:46.668Z,100094.19
2023-01-30T17:33:16.433Z,100087.31
2023-01-30T17:35:45.767Z,100089.75
2023-01-30T17:38:13.813Z,100097.38
2023-01-30T17:40:43.093Z,100115.31
2023-01-30T17:43:13.111Z,100116.13
2023-01-30T17:45:41.659Z,100110.31
2023-01-30T17:48:13.211Z,100123.44
2023-01-30T17:50:43.018Z,100141.84
2023-01-30T17:53:11.091Z,100142.47
2023-01-30T17:55:39.578Z,100147.97
2023-01-30T17:58:07.992Z,100144.63
2023-01-30T18:00:36.048Z,100153.94
2023-01-30T18:03:04.610Z,100157.34
2023-01-30T18:05:32.676Z,100154.44
2023-01-30T18:08:02.017Z,100167.41
2023-01-30T18:10:30.636Z,100173.63
2023-01-30T18:12:58.820Z,100177.88
2023-01-30T18:15:27.104Z,100193.41
2023-01-30T18:17:56.726Z,100189.47
2023-01-30T18:20:25.158Z,100192.63
2023-01-30T18:22:53.476Z,100199.09
2023-01-30T18:25:23.219Z,100197.88
2023-01-30T18:27:51.379Z,100165.94
2023-01-30T18:30:20.251Z,100211.72
2023-01-30T18:32:53.881Z,100220.91
2023-01-30T18:35:23.596Z,100219.72
2023-01-30T18:37:52.085Z,100230.41
2023-01-30T18:40:21.726Z,100238.19
2023-01-30T18:42:51.296Z,100242.59
2023-01-30T18:45:19.662Z,100223.22
2023-01-30T18:47:47.945Z,100254.53
2023-01-30T18:50:15.987Z,100249.75
2023-01-30T18:52:44.245Z,100247.88
2023-01-30T18:55:12.226Z,100248.91
2023-01-30T18:57:40.489Z,100217.78
2023-01-30T19:00:12.415Z,100261.09
2023-01-30T19:02:40.550Z,100261.63
2023-01-30T19:05:09.592Z,100266.12
2023-01-30T19:07:37.667Z,100256.31
2023-01-30T19:10:06.147Z,100284.97
2023-01-30T19:12:52.085Z,100284.47
2023-01-30T19:15:21.565Z,100275.69
2023-01-30T19:17:49.843Z,100289.41
2023-01-30T19:20:20.169Z,100281.91
2023-01-30T19:22:49.888Z,100283.44
2023-01-30T19:25:18.176Z,100276.00
2023-01-30T19:27:46.429Z,100296.97
2023-01-30T19:30:15.607Z,100299.97
2023-01-30T19:32:45.350Z,100300.81
2023-01-30T19:35:13.601Z,100306.56
2023-01-30T19:37:42.010Z,100314.03
2023-01-30T19:40:11.578Z,100325.94
2023-01-30T19:42:43.861Z,100337.12
2023-01-30T19:45:13.626Z,100338.06
2023-01-30T19:47:41.582Z,100334.59
2023-01-30T19:50:12.517Z,100344.81
2023-01-30T19:52:41.754Z,100355.00
2023-01-30T19:55:10.421Z,100349.72
2023-01-30T19:57:38.966Z,100346.97
2023-01-30T20:00:08.608Z,100361.66
2023-01-30T20:02:37.703Z,100353.47
2023-01-30T20:05:06.446Z,100362.66
2023-01-30T20:07:37.201Z,100357.25
2023-01-30T20:10:06.496Z,100360.28
2023-01-30T20:12:35.666Z,100368.00
2023-01-30T20:15:04.752Z,100383.37
2023-01-30T20:17:33.528Z,100392.22
2023-01-30T20:20:01.713Z,100404.56
2023-01-30T20:22:29.831Z,100394.47
2023-01-30T20:24:59.417Z,100401.22
2023-01-30T20:27:27.394Z,100408.59
2023-01-30T20:29:55.577Z,100410.34
2023-01-30T20:32:24.067Z,100398.66
2023-01-30T20:34:52.365Z,100408.31
2023-01-30T20:37:20.442Z,100400.88
2023-01-30T20:39:50.994Z,100401.25
2023-01-30T20:42:20.379Z,100416.78
2023-01-30T20:44:48.878Z,100423.91
2023-01-30T20:47:16.967Z,100405.69
2023-01-30T20:49:45.199Z,100431.00
2023-01-30T20:52:13.565Z,100447.31
2023-01-30T20:54:41.555Z,100446.91
2023-01-30T20:57:10.075Z,100439.81
2023-01-30T20:59:39.762Z,100435.12
2023-01-30T21:02:07.854Z,100426.03
2023-01-30T21:04:36.027Z,100422.88
2023-01-30T21:07:04.962Z,100443.28
2023-01-30T21:09:33.011Z,100466.78
2023-01-30T21:12:01.084Z,100491.25
2023-01-30T21:14:29.587Z,100499.16
2023-01-30T21:16:59.164Z,100491.03
2023-01-30T21:19:27.137Z,100498.34
2023-01-30T21:21:57.447Z,100511.53
2023-01-30T21:24:28.084Z,100520.41
2023-01-30T21:26:56.812Z,100520.81
2023-01-30T21:29:27.451Z,100498.16
2023-01-30T21:31:56.116Z,100513.09
2023-01-30T21:34:26.138Z,100523.56
2023-01-30T21:37:11.817Z,100524.16
2023-01-30T21:39:57.775Z,100546.94
2023-01-30T21:42:43.510Z,100542.16
2023-01-30T21:45:11.914Z,100533.78
2023-01-30T21:47:40.019Z,100527.31
2023-01-30T21:50:10.867Z,100531.69
2023-01-30T21:52:39.187Z,100526.56
2023-01-30T21:55:07.857Z,100548.09
2023-01-30T21:57:36.560Z,100554.66
2023-01-30T22:00:05.630Z,100560.38
2023-01-30T22:02:33.574Z,100563.97
2023-01-30T22:05:01.805Z,100569.88
2023-01-30T22:07:31.622Z,100572.00
2023-01-30T22:10:01.495Z,100585.97
2023-01-30T22:12:31.740Z,100578.72
2023-01-30T22:14:59.865Z,100585.97
2023-01-30T22:17:28.005Z,100592.75
2023-01-30T22:19:56.443Z,100595.12
2023-01-30T22:22:25.495Z,100602.06
2023-01-30T22:24:54.896Z,100609.06
2023-01-30T22:27:23.145Z,100603.84
2023-01-30T22:29:51.637Z,100613.37
2023-01-30T22:32:19.736Z,100606.91
2023-01-30T22:34:48.082Z,100603.50
2023-01-30T22:37:16.721Z,100607.13
2023-01-30T22:39:44.692Z,100605.25
2023-01-30T22:42:14.433Z,100600.56
2023-01-30T22:44:42.488Z,100606.44
2023-01-30T22:47:10.563Z,100606.72
2023-01-30T22:49:39.652Z,100618.16
2023-01-30T22:52:07.764Z,100608.50
2023-01-30T22:54:35.795Z,100610.19
2023-01-30T22:57:03.997Z,100611.34
2023-01-30T22:59:33.224Z,100616.25
2023-01-30T23:02:01.204Z,100615.75
2023-01-30T23:04:30.012Z,100620.69
2023-01-30T23:06:59.588Z,100621.84
2023-01-30T23:09:27.645Z,100626.97
2023-01-30T23:12:16.167Z,100629.09
2023-01-30T23:14:46.235Z,100629.63
2023-01-30T23:17:32.199Z,100628.22
2023-01-30T23:20:00.201Z,100610.94
2023-01-30T23:22:28.564Z,100620.31
2023-01-30T23:24:56.618Z,100624.03
2023-01-30T23:27:25.684Z,100628.25
2023-01-30T23:29:55.566Z,100628.66
2023-01-30T23:32:23.853Z,100618.81
2023-01-30T23:34:52.015Z,100634.06
2023-01-30T23:37:41.326Z,100632.31
2023-01-30T23:40:10.651Z,100644.22
2023-01-30T23:42:39.224Z,100647.66
2023-01-30T23:45:10.007Z,100650.75
2023-01-30T23:47:38.856Z,100655.00
2023-01-30T23:50:07.484Z,100665.22
2023-01-30T23:52:35.542Z,100656.88
2023-01-30T23:55:04.182Z,100651.84
2023-01-30T23:57:32.137Z,100663.78
